Airfield :
LOGIN :

Register | Disclaimer

   EN    FR    IT 

 










Legend :    VFR   Marginal VFR   IFR   Intensive IFR   Very Intensive IFR
Visi :
Ceiling :
>= 8 km
>= 3000ft
5 to 8 km
1000 to 3000 ft
1500m to 5 km
500 to 1000 ft
800 to 1500m
200 to 500 ft
< 800m
< 200 ft
Symbols :   Thunderstorms  Fog  Heavy snow  Heavy precipitations  Wind > 20 kt
SIGMETs :     Misc.  Thunderstorms  Icing  Turbulence  Mountain Waves  Volcanic Ashes







- Airport Elevation : 1202 ft
- IATA code : IGS


ETSI - Ingolstadt

CURRENT METAR :
  • 251720Z 35007KT 9999 -RA BKN040 OVC070 09/06 Q1008 BLU

EXPIRED METARs :
  • 251620Z 35005KT 9999 -RA BKN045 OVC080 11/05 Q1007 BLU
  • 251520Z 34008KT 9999 -RA FEW025 SCT050 OVC080 12/04 Q1007 BLU FCST CANCEL

TAF AMD TAF ETSI
Valid from the 25 at 14:00 until the 25 at 23:00 UTC


251401Z 2514/2523 26007KT 9999 -RA FEW030 BKN050 BKN100
TEMPO 2514/2523 32007KT 6000 -RA SCT010 BKN020 OVC040
PROB30 2514/2516 32015KT 4000 -TSRA SCTCT010 BKN020CB CANCEL 1520
No reported NOTAMs for that airfield.



MET'MAP, your aeronautical weather chart ! - Copyright ORBIFLY December 2007 - Disclaimer

ORBIFLY MET'MAP TEAM :

Programming & Development : Alexandra Zaïnal
Concept & Development : Baudouin d'Aumeries
Co-Development & Prog : Marc-Olivier Méhu
Technical & hardware support : Manuel Goepfert

Contact : metmap@orbifly.com




SOURCES & CREDITS :

   NOAA